Time;durP1;ratioP1;P1;durP2;ratioP2;P2;SDS_P1;SDS_P2;PMS_P1;PMS_P2;Temp;Humidity;BMP_temperature;BMP_pressure;BME280_temperature;BME280_humidity;BME280_pressure;Samples;Min_cycle;Max_cycle;Signal;HPM_P1;HPM_P2
2022/06/15 00:01:25;;;;;;;2.83;1.70;;;;;;;23.92;38.58;95291.41;5099120;28;20031;-56
2022/06/15 00:03:50;;;;;;;2.40;1.40;;;;;;;23.85;38.74;95285.75;5094920;28;20020;-51
2022/06/15 00:06:28;;;;;;;2.78;1.50;;;;;;;23.86;38.46;95285.25;5100217;28;20419;-54
2022/06/15 00:08:56;;;;;;;3.40;1.70;;;;;;;23.93;38.62;95287.44;5102124;28;20035;-53
2022/06/15 00:11:21;;;;;;;3.92;1.83;;;;;;;23.87;37.87;95278.56;5097828;28;20050;-53
2022/06/15 00:13:47;;;;;;;2.25;1.58;;;;;;;23.82;37.85;95288.75;5099902;28;20711;-55
2022/06/15 00:16:12;;;;;;;3.78;1.90;;;;;;;23.86;37.67;95276.31;5098768;28;20043;-55
2022/06/15 00:18:38;;;;;;;3.00;1.55;;;;;;;23.84;37.25;95283.53;5099261;28;20143;-51
2022/06/15 00:21:04;;;;;;;2.33;1.50;;;;;;;23.78;37.58;95280.09;5099512;28;20109;-51
2022/06/15 00:23:30;;;;;;;2.70;1.60;;;;;;;23.79;37.22;95276.13;5104922;28;20460;-54
2022/06/15 00:25:55;;;;;;;3.30;1.40;;;;;;;23.80;37.05;95283.06;5100815;28;20072;-52
2022/06/15 00:28:21;;;;;;;3.17;1.45;;;;;;;23.77;37.10;95278.63;5105687;28;20027;-55
2022/06/15 00:30:49;;;;;;;3.17;1.23;;;;;;;23.67;37.08;95280.16;5078508;28;20044;-52
2022/06/15 00:33:14;;;;;;;2.17;1.30;;;;;;;23.70;37.01;95273.72;5081202;28;20023;-52
2022/06/15 00:35:40;;;;;;;3.33;1.52;;;;;;;23.69;36.91;95277.66;5091793;28;20142;-52
2022/06/15 00:38:07;;;;;;;3.88;1.50;;;;;;;23.68;37.05;95276.19;5097828;28;20117;-52
2022/06/15 00:40:34;;;;;;;3.85;1.40;;;;;;;23.73;37.20;95272.69;5100501;28;20024;-51
2022/06/15 00:42:59;;;;;;;2.33;1.38;;;;;;;23.74;37.07;95268.72;5097345;28;20046;-55
2022/06/15 00:45:25;;;;;;;4.60;1.40;;;;;;;23.71;36.82;95280.66;5091556;28;20303;-56
2022/06/15 00:47:50;;;;;;;1.90;1.30;;;;;;;23.69;37.01;95283.13;5105822;28;20164;-52
2022/06/15 00:50:18;;;;;;;2.80;1.70;;;;;;;23.70;37.12;95282.63;5073298;28;20609;-53
2022/06/15 00:52:54;;;;;;;3.17;1.58;;;;;;;23.69;36.70;95277.66;5056406;28;20028;-53
2022/06/15 00:55:22;;;;;;;2.22;1.40;;;;;;;23.67;36.93;95270.00;5081579;28;20031;-54
2022/06/15 00:57:48;;;;;;;2.35;1.33;;;;;;;23.68;36.56;95282.38;5081693;28;20076;-50
2022/06/15 01:00:14;;;;;;;3.65;1.65;;;;;;;23.68;37.23;95287.84;5056029;28;20044;-50
2022/06/15 01:02:42;;;;;;;2.97;1.48;;;;;;;23.65;36.72;95288.84;5044567;28;20036;-52
2022/06/15 01:05:41;;;;;;;2.97;1.73;;;;;;;23.66;36.55;95289.59;5046590;28;20024;-55
2022/06/15 01:08:06;;;;;;;3.15;1.50;;;;;;;23.66;37.12;95289.59;5051013;28;20513;-52
2022/06/15 01:10:53;;;;;;;3.92;1.48;;;;;;;23.66;36.13;95289.59;5055247;28;20036;-53
2022/06/15 01:14:00;;;;;;;4.03;1.52;;;;;;;23.60;37.12;95291.56;5060332;28;20043;-52
2022/06/15 01:16:42;;;;;;;3.50;1.50;;;;;;;23.60;36.89;95288.84;5030618;28;20040;-53
2022/06/15 01:19:31;;;;;;;3.03;1.30;;;;;;;23.59;36.09;95288.09;5047184;28;20138;-56
2022/06/15 01:22:34;;;;;;;2.70;1.33;;;;;;;23.63;36.48;95290.56;5049180;28;20025;-52
2022/06/15 01:25:08;;;;;;;2.63;1.60;;;;;;;23.63;36.43;95296.78;5048804;28;20031;-57
2022/06/15 01:27:54;;;;;;;3.38;1.25;;;;;;;23.57;36.89;95292.56;5048635;28;20597;-56
2022/06/15 01:30:29;;;;;;;3.55;1.60;;;;;;;23.58;36.53;95302.25;5055967;28;20032;-51
2022/06/15 01:33:19;;;;;;;3.55;1.65;;;;;;;23.63;36.70;95302.22;5063579;28;20031;-53
2022/06/15 01:36:06;;;;;;;2.28;1.38;;;;;;;23.64;36.81;95303.00;5048821;28;20020;-53
2022/06/15 01:38:57;;;;;;;2.78;1.38;;;;;;;23.67;36.34;95296.53;5050396;28;20143;-54
2022/06/15 01:41:25;;;;;;;4.07;1.40;;;;;;;23.63;36.63;95296.00;5058677;28;20028;-54
2022/06/15 01:44:13;;;;;;;5.28;1.45;;;;;;;23.65;36.11;95299.03;5051691;28;20044;-54
2022/06/15 01:46:40;;;;;;;4.05;1.52;;;;;;;23.59;36.36;95301.00;5053449;28;20067;-55
2022/06/15 01:49:08;;;;;;;2.28;1.63;;;;;;;23.56;36.89;95302.00;5045369;28;20029;-53
2022/06/15 01:51:39;;;;;;;3.13;1.40;;;;;;;23.59;36.60;95303.75;5052468;28;20048;-52
2022/06/15 01:54:27;;;;;;;2.55;1.40;;;;;;;23.62;36.23;95300.00;5055134;28;20036;-54
2022/06/15 01:56:53;;;;;;;4.05;1.50;;;;;;;23.62;36.35;95305.44;5057971;28;20467;-52
2022/06/15 01:59:49;;;;;;;4.65;1.58;;;;;;;23.57;36.74;95300.75;5065013;28;20064;-51
2022/06/15 02:02:48;;;;;;;2.70;1.45;;;;;;;23.53;36.71;95303.03;5078190;28;20028;-52
2022/06/15 02:05:45;;;;;;;3.15;1.30;;;;;;;23.47;36.50;95305.03;5069321;28;20028;-54
2022/06/15 02:08:38;;;;;;;2.65;1.50;;;;;;;23.46;36.85;95309.72;5032032;28;20033;-54
2022/06/15 02:11:22;;;;;;;3.70;1.58;;;;;;;23.49;36.50;95313.44;5070313;28;20126;-53
2022/06/15 02:14:14;;;;;;;3.30;1.55;;;;;;;23.45;36.92;95312.94;5080625;28;20261;-56
2022/06/15 02:17:01;;;;;;;4.30;1.77;;;;;;;23.48;37.07;95307.25;5072198;28;20032;-53
2022/06/15 02:19:32;;;;;;;3.33;1.75;;;;;;;23.46;36.83;95300.81;5079589;28;20031;-58
2022/06/15 02:22:00;;;;;;;3.65;1.60;;;;;;;23.49;36.92;95314.16;5074246;28;20042;-55
2022/06/15 02:24:25;;;;;;;2.78;1.40;;;;;;;23.47;36.82;95305.03;5040173;28;20024;-53
2022/06/15 02:26:51;;;;;;;2.90;1.45;;;;;;;23.42;36.66;95309.25;5077157;28;20031;-51
2022/06/15 02:29:18;;;;;;;2.70;1.45;;;;;;;23.40;36.66;95294.66;5067686;28;20033;-55
2022/06/15 02:31:44;;;;;;;2.40;1.40;;;;;;;23.37;37.22;95305.81;5057725;28;20678;-53
2022/06/15 02:34:09;;;;;;;3.33;1.50;;;;;;;23.38;37.06;95308.03;5078206;28;20033;-53
2022/06/15 02:36:35;;;;;;;3.70;1.38;;;;;;;23.37;36.90;95307.28;5077531;28;20119;-52
2022/06/15 02:39:01;;;;;;;3.65;1.58;;;;;;;23.39;36.83;95301.34;5073601;28;20098;-54
2022/06/15 02:41:27;;;;;;;2.67;1.42;;;;;;;23.35;36.66;95298.16;5069601;28;20113;-52
2022/06/15 02:43:54;;;;;;;2.75;1.63;;;;;;;23.33;36.91;95300.59;5064619;28;20021;-51
2022/06/15 02:46:19;;;;;;;3.17;1.67;;;;;;;23.35;36.61;95303.59;5065188;28;20040;-55
2022/06/15 02:48:45;;;;;;;2.22;1.35;;;;;;;23.31;36.65;95303.09;5065431;28;20039;-52
2022/06/15 02:51:37;;;;;;;2.97;1.60;;;;;;;23.26;37.24;95301.16;5061884;28;20047;-52
2022/06/15 02:54:07;;;;;;;4.18;1.42;;;;;;;23.32;36.46;95298.38;5064689;28;20048;-54
2022/06/15 02:56:32;;;;;;;;;;;;;;;23.21;37.09;95304.63;5066666;28;20036;-53
2022/06/15 02:58:58;;;;;;;2.83;1.50;;;;;;;23.28;36.48;95301.38;5075773;28;19930;-53
2022/06/15 03:01:25;;;;;;;4.18;1.70;;;;;;;23.31;36.74;95297.66;5077451;28;20020;-53
2022/06/15 03:03:51;;;;;;;2.75;1.50;;;;;;;23.19;36.75;95301.66;5073449;28;20024;-54
2022/06/15 03:06:17;;;;;;;3.40;1.50;;;;;;;23.17;36.85;95298.72;5077113;28;20674;-55
2022/06/15 03:08:43;;;;;;;2.20;1.30;;;;;;;23.25;36.78;95304.38;5069715;28;20032;-54
2022/06/15 03:11:08;;;;;;;3.20;1.50;;;;;;;23.22;36.79;95300.66;5072727;28;20028;-53
2022/06/15 03:13:34;;;;;;;2.55;1.70;;;;;;;23.27;37.15;95308.06;5075550;28;20081;-52
2022/06/15 03:16:00;;;;;;;3.53;1.73;;;;;;;23.18;36.96;95300.16;5073433;28;20564;-53
2022/06/15 03:18:26;;;;;;;3.00;1.60;;;;;;;23.26;37.14;95290.25;5076430;28;20720;-56
2022/06/15 03:20:56;;;;;;;3.72;1.60;;;;;;;23.24;36.94;95298.16;5066872;28;20035;-55
2022/06/15 03:23:21;;;;;;;4.20;1.88;;;;;;;23.22;36.60;95297.94;5075803;28;20028;-54
2022/06/15 03:25:55;;;;;;;2.88;1.50;;;;;;;23.20;37.20;95292.25;5074891;28;20207;-56
2022/06/15 03:28:20;;;;;;;3.70;1.42;;;;;;;23.25;37.02;95294.22;5076991;28;20024;-53
2022/06/15 03:30:46;;;;;;;2.97;1.48;;;;;;;23.24;37.27;95300.16;5072749;28;20035;-52
2022/06/15 03:33:11;;;;;;;2.28;1.50;;;;;;;23.26;36.81;95306.59;5066078;28;20040;-52
2022/06/15 03:35:37;;;;;;;3.75;1.50;;;;;;;23.28;37.02;95309.56;5067559;28;20081;-51
2022/06/15 03:38:03;;;;;;;4.00;1.50;;;;;;;23.25;37.38;95307.84;5076777;28;20482;-52
2022/06/15 03:40:29;;;;;;;3.17;1.70;;;;;;;23.28;37.37;95304.09;5069687;28;20028;-54
2022/06/15 03:42:55;;;;;;;2.88;1.50;;;;;;;23.29;37.02;95305.59;5075559;28;20514;-51
2022/06/15 03:45:20;;;;;;;3.38;1.30;;;;;;;23.29;37.04;95316.50;5074144;28;20036;-51
2022/06/15 03:47:46;;;;;;;5.03;1.88;;;;;;;23.25;37.13;95305.09;5071424;28;20103;-52
2022/06/15 03:50:11;;;;;;;3.67;1.52;;;;;;;23.26;37.30;95316.75;5062214;28;20036;-50
2022/06/15 03:52:37;;;;;;;5.13;1.70;;;;;;;23.22;36.93;95314.28;5059856;28;20033;-54
2022/06/15 03:55:02;;;;;;;3.05;1.67;;;;;;;23.19;37.08;95318.00;5062893;28;20032;-53
2022/06/15 03:57:28;;;;;;;3.40;1.50;;;;;;;23.20;37.24;95319.50;5072618;28;20035;-53
2022/06/15 03:59:53;;;;;;;3.97;1.75;;;;;;;23.19;37.53;95323.47;5064968;28;20450;-51
2022/06/15 04:02:19;;;;;;;4.55;2.35;;;;;;;23.17;37.88;95325.94;5075079;28;20043;-54
2022/06/15 04:04:44;;;;;;;3.08;2.08;;;;;;;23.17;37.97;95325.94;5074102;28;20047;-54
2022/06/15 04:08:34;;;;;;;5.78;1.90;;;;;;;23.19;38.24;95323.47;5065535;28;20020;-53
2022/06/15 04:09:55;;;;;;;4.55;2.00;;;;;;;23.19;38.60;95328.91;5071632;28;20127;-52
2022/06/15 04:12:21;;;;;;;3.65;1.73;;;;;;;23.14;39.20;95321.50;5073311;28;20103;-54
2022/06/15 04:14:47;;;;;;;5.85;1.85;;;;;;;23.19;39.22;95320.00;5079405;28;20038;-55
2022/06/15 04:17:13;;;;;;;5.32;2.15;;;;;;;23.06;39.25;95320.53;5068944;28;20129;-54
2022/06/15 04:19:38;;;;;;;4.35;2.10;;;;;;;23.15;39.26;95325.72;5069174;28;20142;-52
2022/06/15 04:22:04;;;;;;;5.30;2.10;;;;;;;23.16;39.77;95312.81;5070036;28;20114;-55
2022/06/15 04:24:30;;;;;;;4.10;2.17;;;;;;;23.14;39.72;95321.50;5064801;28;20028;-54
2022/06/15 04:26:56;;;;;;;4.35;2.10;;;;;;;23.15;39.81;95317.53;5073356;28;20047;-55
2022/06/15 04:29:21;;;;;;;3.72;1.92;;;;;;;23.12;40.16;95321.28;5064140;28;20032;-54
2022/06/15 04:31:47;;;;;;;4.72;2.13;;;;;;;23.18;40.55;95327.41;5081945;28;20047;-60
2022/06/15 04:34:13;;;;;;;6.03;2.22;;;;;;;23.14;40.55;95318.78;5086228;28;20024;-55
2022/06/15 04:36:39;;;;;;;5.22;2.10;;;;;;;23.18;40.41;95327.41;5076447;28;20028;-55
2022/06/15 04:39:05;;;;;;;5.53;2.10;;;;;;;23.17;40.53;95325.94;5076971;28;20483;-53
2022/06/15 04:41:32;;;;;;;5.88;2.17;;;;;;;23.19;40.53;95328.91;5075777;28;20036;-53
2022/06/15 04:43:58;;;;;;;3.90;2.10;;;;;;;23.21;40.82;95331.88;5081817;28;20032;-53
2022/06/15 04:46:24;;;;;;;6.35;2.10;;;;;;;23.22;41.41;95333.34;5073233;28;20024;-54
2022/06/15 04:48:49;;;;;;;4.30;2.22;;;;;;;23.23;41.12;95334.09;5063129;28;20024;-52
2022/06/15 04:51:17;;;;;;;4.90;2.10;;;;;;;23.26;41.30;95328.41;5070535;28;20020;-57
2022/06/15 04:53:42;;;;;;;4.72;2.10;;;;;;;23.26;41.20;95333.84;5075793;28;20128;-52
2022/06/15 04:56:08;;;;;;;5.15;2.00;;;;;;;23.35;40.89;95330.84;5073253;28;20032;-54
2022/06/15 04:58:34;;;;;;;5.47;2.28;;;;;;;23.36;40.99;95337.75;5084346;28;20040;-56
2022/06/15 05:01:00;;;;;;;5.00;1.83;;;;;;;23.41;41.47;95337.03;5097759;28;20031;-53
2022/06/15 05:03:25;;;;;;;3.67;2.13;;;;;;;23.47;40.81;95346.66;5090204;28;20031;-53
2022/06/15 05:05:55;;;;;;;4.15;2.22;;;;;;;23.58;41.14;95340.41;5093504;28;20494;-54
2022/06/15 05:08:21;;;;;;;4.60;2.10;;;;;;;23.62;40.69;95327.25;5090533;28;20031;-54
2022/06/15 05:10:46;;;;;;;4.88;2.00;;;;;;;23.77;40.55;95344.09;5098283;28;20032;-55
2022/06/15 05:13:12;;;;;;;3.22;1.73;;;;;;;23.81;41.04;95339.84;5073354;28;20478;-54
2022/06/15 05:15:38;;;;;;;4.22;2.03;;;;;;;23.90;40.93;95343.00;5079206;28;20776;-53
2022/06/15 05:18:07;;;;;;;5.85;2.30;;;;;;;24.04;39.92;95346.66;5082131;28;20020;-53
2022/06/15 05:25:34;;;;;;;5.30;2.33;;;;;;;24.35;39.80;95352.44;4945190;28;20059;-51
2022/06/15 05:27:59;;;;;;;5.65;2.10;;;;;;;24.49;39.50;95359.50;4937768;28;20043;-56
2022/06/15 05:30:25;;;;;;;5.90;2.05;;;;;;;24.47;39.84;95353.81;4977907;23;20023;-78
2022/06/15 05:32:50;;;;;;;2.88;2.10;;;;;;;24.54;39.54;95353.25;4925388;28;20240;-75
2022/06/15 05:35:15;;;;;;;3.30;2.03;;;;;;;24.77;38.81;95354.53;4952857;28;20034;-76
2022/06/15 05:37:41;;;;;;;3.95;2.20;;;;;;;24.79;40.59;95360.25;4957232;28;20505;-74
2022/06/15 05:40:07;;;;;;;5.07;2.10;;;;;;;24.84;39.35;95354.72;4965188;28;20617;-70
2022/06/15 05:42:32;;;;;;;6.13;2.00;;;;;;;24.95;39.22;95362.84;4998375;23;20128;-52
2022/06/15 05:45:01;;;;;;;5.00;1.90;;;;;;;25.05;38.35;95364.00;5001477;28;20026;-50
2022/06/15 05:47:27;;;;;;;6.75;2.03;;;;;;;25.17;38.71;95357.94;4999112;28;20030;-50
2022/06/15 05:49:52;;;;;;;4.78;2.25;;;;;;;25.32;38.09;95361.75;4996359;28;20041;-52
2022/06/15 05:52:18;;;;;;;3.63;1.90;;;;;;;25.35;37.83;95362.69;4995002;28;20041;-50
2022/06/15 05:54:43;;;;;;;4.38;1.92;;;;;;;25.27;37.99;95367.25;4999222;28;20037;-52
2022/06/15 05:57:19;;;;;;;3.83;1.92;;;;;;;25.34;37.56;95363.97;5009235;28;20034;-50
2022/06/15 05:59:46;;;;;;;2.97;1.70;;;;;;;25.55;36.95;95368.44;5010104;28;20041;-50
2022/06/15 06:02:11;;;;;;;4.00;1.77;;;;;;;25.51;36.43;95359.03;5000899;28;20046;-54
2022/06/15 06:04:37;;;;;;;4.45;2.08;;;;;;;25.48;36.75;95371.00;4999289;28;20030;-58
2022/06/15 06:07:03;;;;;;;4.32;1.85;;;;;;;25.63;36.02;95368.59;4992567;28;20439;-57
2022/06/15 06:09:28;;;;;;;3.13;1.85;;;;;;;25.63;36.37;95371.31;4997255;28;20033;-53
2022/06/15 06:11:54;;;;;;;4.50;1.70;;;;;;;25.61;36.36;95371.13;4996202;28;20030;-51
2022/06/15 06:14:20;;;;;;;3.55;1.52;;;;;;;25.60;36.31;95375.09;4997663;28;20161;-51
2022/06/15 06:16:46;;;;;;;4.05;2.03;;;;;;;25.79;35.90;95380.09;4998345;28;20026;-51
2022/06/15 06:19:11;;;;;;;3.30;1.77;;;;;;;25.77;36.17;95378.38;4997952;28;20017;-51
2022/06/15 06:21:37;;;;;;;4.72;1.90;;;;;;;25.82;36.04;95379.06;4994998;28;20038;-53
2022/06/15 06:24:02;;;;;;;5.55;2.05;;;;;;;25.71;36.53;95391.41;4995945;28;20049;-55
2022/06/15 06:26:31;;;;;;;5.53;1.88;;;;;;;25.70;36.15;95382.47;4999227;28;20029;-56
2022/06/15 06:28:59;;;;;;;4.10;1.83;;;;;;;25.70;36.06;95392.66;4980616;28;20546;-53
2022/06/15 06:31:25;;;;;;;3.03;1.60;;;;;;;25.71;35.96;95383.94;4997562;28;20037;-52
2022/06/15 06:33:51;;;;;;;7.15;1.92;;;;;;;25.60;36.34;95378.56;4997545;28;20040;-54
2022/06/15 06:36:32;;;;;;;4.13;1.60;;;;;;;25.56;36.38;95371.91;4997059;28;20083;-53
2022/06/15 06:38:59;;;;;;;3.45;1.73;;;;;;;25.47;36.53;95369.50;4977444;28;20022;-53
2022/06/15 06:41:25;;;;;;;6.38;1.90;;;;;;;25.52;36.10;95371.47;4997485;28;20034;-52
2022/06/15 06:43:50;;;;;;;4.60;1.90;;;;;;;25.44;36.81;95376.00;4969832;28;20068;-54
2022/06/15 06:46:16;;;;;;;4.47;2.00;;;;;;;25.33;36.25;95370.66;4984459;28;20029;-53
2022/06/15 06:48:41;;;;;;;5.53;2.00;;;;;;;25.35;36.48;95373.63;4983712;28;20765;-55
2022/06/15 06:51:07;;;;;;;2.47;1.60;;;;;;;25.28;36.35;95374.22;4982667;28;20062;-57
2022/06/15 06:53:32;;;;;;;3.13;1.50;;;;;;;25.26;36.53;95376.72;4982145;28;20394;-53
2022/06/15 06:56:05;;;;;;;2.30;1.50;;;;;;;25.15;36.92;95382.28;4980413;28;20034;-56
2022/06/15 06:58:31;;;;;;;3.72;2.17;;;;;;;25.14;36.79;95375.34;4979805;28;20054;-53
2022/06/15 07:00:57;;;;;;;2.95;1.75;;;;;;;25.15;36.82;95376.81;4981320;28;20026;-57
2022/06/15 07:03:22;;;;;;;2.65;1.60;;;;;;;25.12;36.62;95377.84;4984710;28;20034;-53
2022/06/15 07:05:48;;;;;;;2.97;1.60;;;;;;;25.05;36.71;95372.97;4980661;28;20038;-54
2022/06/15 07:08:13;;;;;;;3.10;1.67;;;;;;;25.08;36.69;95377.41;4980968;28;20798;-52
2022/06/15 07:10:39;;;;;;;2.63;1.52;;;;;;;25.05;37.01;95372.19;4982600;28;20030;-51
2022/06/15 07:13:05;;;;;;;3.42;1.60;;;;;;;24.98;37.48;95368.03;4961344;28;20057;-56
2022/06/15 07:15:30;;;;;;;4.60;1.75;;;;;;;24.95;37.26;95369.03;4963128;28;20041;-54
2022/06/15 07:17:59;;;;;;;4.75;1.48;;;;;;;24.96;37.92;95381.47;4979498;28;20477;-52
2022/06/15 07:20:26;;;;;;;4.83;1.70;;;;;;;24.85;37.97;95380.81;4981896;28;20637;-52
2022/06/15 07:22:51;;;;;;;2.03;1.50;;;;;;;24.84;38.00;95374.59;4980537;28;20045;-55
2022/06/15 07:25:17;;;;;;;4.93;1.90;;;;;;;24.80;38.36;95372.66;4944599;28;20026;-52
2022/06/15 07:27:43;;;;;;;3.10;1.60;;;;;;;24.86;38.12;95383.03;4983572;28;20549;-53
2022/06/15 07:30:11;;;;;;;3.60;1.60;;;;;;;24.83;38.01;95384.06;4962829;28;20031;-54
2022/06/15 07:32:38;;;;;;;3.00;1.58;;;;;;;24.82;37.99;95381.81;4978708;28;20038;-52
2022/06/15 07:35:04;;;;;;;3.85;1.60;;;;;;;24.83;38.17;95384.06;4982557;28;20026;-53
2022/06/15 07:37:29;;;;;;;5.10;1.70;;;;;;;24.78;38.10;95380.63;4979814;28;20076;-56
2022/06/15 07:39:55;;;;;;;4.00;1.80;;;;;;;24.79;38.04;95384.84;4981895;28;20031;-51
2022/06/15 07:42:20;;;;;;;4.00;1.77;;;;;;;24.75;38.42;95376.19;4985617;28;20084;-51
2022/06/15 07:44:46;;;;;;;3.63;1.70;;;;;;;24.74;38.43;95385.63;4999474;28;20750;-56
2022/06/15 07:49:55;;;;;;;5.65;2.03;;;;;;;24.75;38.95;95376.19;5001404;28;20362;-55
2022/06/15 07:52:22;;;;;;;3.38;1.90;;;;;;;24.78;38.84;95386.09;4981177;28;20030;-52
2022/06/15 07:54:49;;;;;;;4.47;1.70;;;;;;;24.74;38.69;95380.16;4980648;28;20536;-53
2022/06/15 07:57:14;;;;;;;4.57;1.67;;;;;;;24.77;38.58;95373.66;5000789;28;20069;-55
2022/06/15 07:59:40;;;;;;;3.38;1.77;;;;;;;24.79;38.73;95376.66;4996958;28;20077;-53
2022/06/15 08:02:05;;;;;;;3.28;1.70;;;;;;;24.81;38.47;95374.13;5000419;28;20033;-55
2022/06/15 08:04:31;;;;;;;2.35;1.70;;;;;;;24.71;38.42;95375.69;4998964;28;20558;-54
2022/06/15 08:06:56;;;;;;;3.60;1.60;;;;;;;24.73;38.41;95373.22;5001063;28;20044;-57
2022/06/15 08:09:22;;;;;;;4.13;1.83;;;;;;;24.73;39.01;95373.22;5006235;28;20032;-54
2022/06/15 08:14:33;;;;;;;3.78;1.90;;;;;;;24.72;37.98;95382.66;5004521;28;20488;-52
2022/06/15 08:16:58;;;;;;;5.15;1.73;;;;;;;24.71;38.57;95381.16;5004579;28;20026;-52
2022/06/15 08:19:24;;;;;;;3.50;1.60;;;;;;;24.69;39.03;95378.22;4995321;28;20143;-52
2022/06/15 08:21:49;;;;;;;3.17;1.60;;;;;;;24.77;38.60;95390.06;5005459;28;20499;-54
2022/06/15 08:24:15;;;;;;;2.85;1.75;;;;;;;24.68;38.06;95376.72;5005172;28;20025;-51
2022/06/15 08:26:42;;;;;;;2.75;1.73;;;;;;;24.70;38.34;95387.91;4982698;28;20067;-52
2022/06/15 08:29:09;;;;;;;2.83;1.42;;;;;;;24.73;38.53;95373.22;5004478;28;20041;-55
2022/06/15 08:31:36;;;;;;;2.83;1.55;;;;;;;24.75;39.08;95378.91;4983882;28;20100;-53
2022/06/15 08:34:03;;;;;;;4.55;1.73;;;;;;;24.82;38.92;95382.56;5001823;28;20439;-52
2022/06/15 08:36:28;;;;;;;4.10;1.90;;;;;;;24.82;38.74;95382.56;5002985;28;20030;-53
2022/06/15 08:38:56;;;;;;;3.55;1.50;;;;;;;24.82;38.88;95381.09;5002227;28;20104;-51
2022/06/15 08:41:30;;;;;;;4.07;1.40;;;;;;;24.84;38.50;95385.53;5003891;28;20116;-51
2022/06/15 08:44:08;;;;;;;5.80;2.17;;;;;;;24.86;38.76;95383.03;4984353;28;20349;-51
2022/06/15 08:46:49;;;;;;;4.15;1.67;;;;;;;24.87;38.41;95376.31;4984868;28;20034;-51
2022/06/15 08:49:37;;;;;;;4.38;1.73;;;;;;;24.85;38.42;95381.53;4982639;28;20029;-53
2022/06/15 08:52:06;;;;;;;3.42;1.63;;;;;;;24.87;38.18;95383.75;4985798;28;20044;-51
2022/06/15 08:54:54;;;;;;;3.60;1.50;;;;;;;24.91;37.96;95384.22;4969665;28;20045;-52
2022/06/15 08:57:29;;;;;;;2.58;1.42;;;;;;;24.94;38.05;95377.75;4988152;28;20030;-53
2022/06/15 09:00:15;;;;;;;5.47;1.63;;;;;;;24.94;38.16;95383.22;4984034;28;20056;-50
2022/06/15 09:03:16;;;;;;;3.78;1.30;;;;;;;24.92;37.75;95391.91;4968313;28;20036;-56
2022/06/15 09:05:49;;;;;;;2.20;1.40;;;;;;;24.96;37.71;95389.66;4964975;28;20042;-54
2022/06/15 09:08:31;;;;;;;3.15;2.03;;;;;;;24.98;37.56;95380.94;4984057;28;20053;-55
2022/06/15 09:11:26;;;;;;;6.47;2.55;;;;;;;25.01;37.85;95377.97;4987398;28;20052;-54
2022/06/15 09:14:15;;;;;;;5.47;3.40;;;;;;;25.06;37.93;95385.34;5002866;28;20030;-53
2022/06/15 09:16:47;;;;;;;;;;;;;;;25.13;38.66;95373.88;5000686;28;20109;-52
2022/06/15 09:19:15;;;;;;;26.65;10.82;;;;;;;25.20;39.45;95383.47;4999188;28;19980;-51
2022/06/15 09:22:00;;;;;;;18.48;7.70;;;;;;;25.28;38.62;95379.69;5004862;28;20030;-54
2022/06/15 09:24:42;;;;;;;9.80;5.18;;;;;;;25.34;37.05;95377.63;4967499;28;20065;-52
2022/06/15 09:27:11;;;;;;;6.65;3.40;;;;;;;25.35;36.67;95373.63;4982134;28;20041;-54
2022/06/15 09:29:41;;;;;;;7.95;3.47;;;;;;;25.44;36.91;95373.28;4970410;28;20030;-54
2022/06/15 09:32:11;;;;;;;12.00;3.67;;;;;;;25.67;37.01;95388.22;4971410;28;20037;-54
2022/06/15 09:34:49;;;;;;;6.68;3.63;;;;;;;25.82;36.65;95381.81;5003371;28;20026;-54
2022/06/15 09:37:18;;;;;;;6.22;2.47;;;;;;;25.95;36.43;95381.91;4979959;28;20038;-53
2022/06/15 09:39:44;;;;;;;5.57;2.63;;;;;;;26.00;35.97;95389.28;4996717;28;20041;-55
2022/06/15 09:42:18;;;;;;;7.43;1.98;;;;;;;26.13;35.76;95375.69;4998455;28;21078;-51
2022/06/15 09:45:09;;;;;;;3.67;2.33;;;;;;;26.31;36.02;95374.97;5001581;28;20057;-54
2022/06/15 09:47:49;;;;;;;4.63;1.85;;;;;;;26.45;35.61;95379.22;4987416;28;20030;-52
2022/06/15 09:50:21;;;;;;;4.82;1.90;;;;;;;26.57;35.36;95386.03;4996460;28;20034;-54
2022/06/15 09:52:56;;;;;;;4.75;1.80;;;;;;;26.68;35.08;95369.41;4996976;28;20068;-52
2022/06/15 09:55:48;;;;;;;3.88;1.67;;;;;;;26.80;35.06;95366.72;4998544;28;20041;-52
2022/06/15 09:58:18;;;;;;;3.50;1.85;;;;;;;26.93;34.66;95361.28;4997150;28;20528;-52
2022/06/15 10:00:44;;;;;;;3.38;1.70;;;;;;;27.06;34.63;95361.31;5001646;28;20025;-53
2022/06/15 10:03:20;;;;;;;3.13;1.85;;;;;;;27.11;34.17;95357.72;4963396;28;20503;-52
2022/06/15 10:05:46;;;;;;;3.13;1.55;;;;;;;27.19;33.84;95353.09;4981726;28;20038;-54
2022/06/15 10:08:12;;;;;;;4.03;1.52;;;;;;;27.23;34.23;95353.50;4981236;28;20294;-54
2022/06/15 10:10:50;;;;;;;3.05;1.60;;;;;;;27.31;34.42;95357.13;4998500;28;20032;-54
2022/06/15 10:13:18;;;;;;;5.28;1.60;;;;;;;27.48;33.76;95352.78;4970081;28;20088;-55
2022/06/15 10:15:43;;;;;;;2.47;1.77;;;;;;;27.53;33.51;95359.47;4998447;28;20489;-54
2022/06/15 10:18:27;;;;;;;2.90;1.50;;;;;;;27.62;33.57;95361.78;4998716;28;20030;-52
2022/06/15 10:20:57;;;;;;;3.90;1.70;;;;;;;27.66;33.95;95362.22;4997732;28;20042;-52
2022/06/15 10:23:59;;;;;;;3.10;1.65;;;;;;;27.76;33.21;95350.25;4996289;28;20158;-52
2022/06/15 10:26:32;;;;;;;2.53;1.75;;;;;;;27.78;33.32;95353.94;4991126;28;20053;-52
2022/06/15 10:28:59;;;;;;;2.58;1.50;;;;;;;27.75;33.21;95355.00;4978245;28;20036;-52
2022/06/15 10:31:32;;;;;;;4.18;1.40;;;;;;;27.75;32.94;95346.75;4980917;28;20041;-51
2022/06/15 10:33:58;;;;;;;2.90;1.52;;;;;;;27.76;33.47;95353.75;5001388;28;20026;-53
2022/06/15 10:36:28;;;;;;;3.80;1.63;;;;;;;27.80;34.04;95345.94;5001131;28;20032;-53
2022/06/15 10:39:04;;;;;;;4.18;1.88;;;;;;;27.75;33.99;95349.50;4980600;28;20037;-55
2022/06/15 10:41:47;;;;;;;3.42;1.70;;;;;;;27.66;33.91;95343.00;4990604;28;20029;-56
2022/06/15 10:44:19;;;;;;;3.65;1.67;;;;;;;27.69;34.11;95339.19;4978258;28;20045;-52
2022/06/15 10:46:51;;;;;;;4.07;1.70;;;;;;;27.63;33.88;95341.31;4995868;28;20037;-51
2022/06/15 10:49:17;;;;;;;2.78;1.70;;;;;;;27.47;34.96;95345.06;4965658;28;20029;-53
2022/06/15 10:51:42;;;;;;;4.07;1.90;;;;;;;27.52;34.99;95325.81;4998964;28;20100;-51
2022/06/15 10:54:17;;;;;;;3.00;1.88;;;;;;;27.46;35.08;95338.88;4980614;28;20033;-56
2022/06/15 11:02:28;;;;;;;4.00;1.58;;;;;;;27.41;35.35;95341.69;4981905;28;20044;-56
2022/06/15 11:05:00;;;;;;;4.70;1.60;;;;;;;27.39;35.37;95338.75;4996076;28;20064;-54
2022/06/15 11:07:32;;;;;;;6.80;1.80;;;;;;;27.29;35.77;95330.22;4997574;28;20042;-52
2022/06/15 11:09:58;;;;;;;3.75;1.63;;;;;;;27.18;34.52;95324.19;4978817;28;20046;-51
2022/06/15 11:12:45;;;;;;;2.40;1.70;;;;;;;27.17;35.22;95333.69;4994937;28;20123;-52
2022/06/15 11:15:13;;;;;;;3.15;1.63;;;;;;;27.16;35.33;95326.72;5014580;28;20029;-54
2022/06/15 11:18:06;;;;;;;3.70;2.00;;;;;;;27.17;35.15;95333.69;4998023;28;20659;-52
2022/06/15 11:21:01;;;;;;;4.00;1.45;;;;;;;27.15;35.50;95327.25;4996815;28;20060;-52
2022/06/15 11:23:45;;;;;;;2.60;1.90;;;;;;;27.12;35.50;95325.56;4995752;28;20120;-53
2022/06/15 11:29:19;;;;;;;2.97;1.60;;;;;;;27.08;35.25;95314.91;4996581;28;20448;-52
2022/06/15 11:31:44;;;;;;;4.05;1.67;;;;;;;27.04;35.50;95314.50;4995127;28;20048;-54
2022/06/15 11:34:12;;;;;;;3.47;1.77;;;;;;;27.01;35.72;95314.78;5000331;28;20094;-56
2022/06/15 11:36:43;;;;;;;2.33;1.52;;;;;;;27.06;35.74;95313.97;5013540;28;20057;-52
2022/06/15 11:39:17;;;;;;;2.88;1.63;;;;;;;27.03;36.18;95318.50;4997458;28;20030;-55
2022/06/15 11:41:50;;;;;;;3.40;1.60;;;;;;;27.01;36.01;95304.56;4983405;28;20034;-52
2022/06/15 11:44:22;;;;;;;2.33;1.55;;;;;;;26.99;35.83;95307.09;4984517;28;20408;-52
2022/06/15 11:46:56;;;;;;;2.67;1.92;;;;;;;26.99;35.79;95311.84;5000381;28;20030;-53
2022/06/15 11:49:37;;;;;;;2.67;1.60;;;;;;;27.02;36.13;95308.03;4982906;28;20424;-52
2022/06/15 11:52:22;;;;;;;3.47;1.58;;;;;;;27.01;36.04;95299.09;4966489;28;20049;-52
2022/06/15 11:55:15;;;;;;;4.70;2.08;;;;;;;27.00;35.89;95303.09;5003343;28;20121;-52
2022/06/15 11:58:02;;;;;;;2.88;1.75;;;;;;;26.99;36.30;95307.09;5001419;28;20046;-54
2022/06/15 12:00:32;;;;;;;3.03;1.60;;;;;;;26.98;36.27;95305.63;5015348;28;20092;-55
2022/06/15 12:03:23;;;;;;;3.95;1.90;;;;;;;27.01;36.59;95298.34;4983487;28;20104;-51
2022/06/15 12:05:51;;;;;;;3.47;1.90;;;;;;;26.95;35.93;95295.72;4985905;28;20030;-51
2022/06/15 12:08:41;;;;;;;3.83;1.60;;;;;;;26.96;36.18;95297.16;5002315;28;20405;-53
2022/06/15 12:14:15;;;;;;;4.28;1.83;;;;;;;26.80;36.26;95289.97;4988536;28;20040;-58